Time;durP1;ratioP1;P1;durP2;ratioP2;P2;SDS_P1;SDS_P2;PMS_P1;PMS_P2;Temp;Humidity;BMP_temperature;BMP_pressure;BME280_temperature;BME280_humidity;BME280_pressure;Samples;Min_cycle;Max_cycle;Signal;HPM_P1;HPM_P2
2022/01/28 00:01:05;;;;;;;6.23;5.63;;;4.70;96.10;;;;;;5097567;28;20579;-45
2022/01/28 00:03:33;;;;;;;6.20;5.30;;;4.70;96.10;;;;;;5097765;28;20454;-45
2022/01/28 00:05:58;;;;;;;6.33;5.73;;;4.70;96.10;;;;;;5097534;28;20434;-45
2022/01/28 00:08:24;;;;;;;4.90;4.40;;;4.70;96.10;;;;;;5079795;28;20411;-45
2022/01/28 00:10:52;;;;;;;7.30;6.27;;;4.70;96.10;;;;;;5099814;28;20497;-45
2022/01/28 00:13:23;;;;;;;5.97;5.30;;;4.60;96.10;;;;;;5114127;28;20211;-45
2022/01/28 00:39:46;;;;;;;6.77;6.07;;;7.10;95.80;;;;;;5121449;28;20834;-46
2022/01/28 00:42:12;;;;;;;7.23;6.40;;;6.80;95.10;;;;;;5121476;28;20416;-46
2022/01/28 00:44:38;;;;;;;6.23;5.17;;;6.60;94.80;;;;;;5121715;28;20530;-46
2022/01/28 00:47:04;;;;;;;9.73;5.57;;;6.30;94.80;;;;;;5121020;28;20188;-46
2022/01/28 00:49:30;;;;;;;7.00;6.30;;;6.10;94.30;;;;;;5121513;28;20399;-46
2022/01/28 00:51:55;;;;;;;6.80;5.97;;;6.00;94.30;;;;;;5121156;28;20480;-46
2022/01/28 00:54:21;;;;;;;6.33;5.10;;;5.90;94.40;;;;;;5121219;28;20194;-46
2022/01/28 00:56:47;;;;;;;6.30;5.50;;;5.70;94.40;;;;;;5121356;28;20569;-46
2022/01/28 00:59:13;;;;;;;6.10;5.27;;;5.70;94.50;;;;;;5120942;28;20203;-46
2022/01/28 01:01:39;;;;;;;6.10;5.30;;;5.60;94.50;;;;;;5121269;28;20433;-46
2022/01/28 01:04:05;;;;;;;6.77;5.40;;;5.50;94.60;;;;;;5121270;28;20453;-46
2022/01/28 01:06:31;;;;;;;7.00;5.57;;;5.50;94.60;;;;;;5121110;28;20495;-46
2022/01/28 01:08:57;;;;;;;6.07;5.47;;;5.40;94.70;;;;;;5102898;28;20168;-46
2022/01/28 01:11:25;;;;;;;6.30;5.70;;;5.40;94.70;;;;;;5120685;28;20477;-46
2022/01/28 01:13:51;;;;;;;5.23;4.73;;;5.40;94.70;;;;;;5120885;28;20790;-46
2022/01/28 01:16:25;;;;;;;7.53;5.93;;;5.30;94.70;;;;;;5120875;28;20433;-46
2022/01/28 01:21:30;;;;;;;7.80;5.70;;;5.30;94.80;;;;;;5120366;28;20428;-46
2022/01/28 01:23:58;;;;;;;8.33;5.23;;;5.20;94.80;;;;;;5120895;28;20471;-46
2022/01/28 01:26:33;;;;;;;8.20;5.77;;;5.20;94.80;;;;;;5120676;28;20902;-46
2022/01/28 01:28:59;;;;;;;5.47;4.93;;;5.20;94.80;;;;;;5120338;28;20699;-46
2022/01/28 01:31:25;;;;;;;5.30;4.80;;;5.20;94.80;;;;;;5119691;28;20426;-46
2022/01/28 01:34:01;;;;;;;5.00;4.20;;;5.10;94.80;;;;;;5119945;28;20402;-46
2022/01/28 01:36:27;;;;;;;5.70;4.93;;;5.10;94.70;;;;;;5119072;28;20179;-46
2022/01/28 01:38:53;;;;;;;7.53;5.23;;;5.10;94.70;;;;;;5101124;28;20416;-46
2022/01/28 01:41:29;;;;;;;6.47;5.20;;;5.10;94.70;;;;;;5118835;28;20180;-46
2022/01/28 01:54:16;;;;;;;6.80;4.77;;;4.90;94.50;;;;;;5119795;28;20421;-46
2022/01/28 01:56:42;;;;;;;5.10;4.60;;;4.90;94.50;;;;;;5119709;28;20410;-46
2022/01/28 01:59:09;;;;;;;6.87;5.23;;;4.80;94.80;;;;;;5102331;28;20194;-46
2022/01/28 02:01:35;;;;;;;6.27;5.70;;;4.80;94.50;;;;;;5120135;28;20414;-46
2022/01/28 02:04:01;;;;;;;9.40;5.50;;;4.80;94.60;;;;;;5119514;28;20568;-46
2022/01/28 02:06:26;;;;;;;9.50;5.60;;;4.70;94.80;;;;;;5119873;28;20501;-46
2022/01/28 02:08:52;;;;;;;5.63;5.13;;;4.70;94.60;;;;;;5120216;28;20266;-46
2022/01/28 02:11:18;;;;;;;6.10;5.00;;;4.60;94.50;;;;;;5119678;28;20519;-46
2022/01/28 02:13:50;;;;;;;9.37;5.60;;;4.60;94.60;;;;;;5119540;28;20434;-46
2022/01/28 02:16:16;;;;;;;6.57;4.97;;;4.60;94.70;;;;;;5119381;28;20267;-46
2022/01/28 02:18:42;;;;;;;6.03;5.30;;;4.50;94.70;;;;;;5119677;28;20828;-46
2022/01/28 02:21:11;;;;;;;6.20;4.83;;;4.50;94.70;;;;;;5119657;28;20706;-46
2022/01/28 02:23:37;;;;;;;6.20;5.10;;;4.40;94.70;;;;;;5119130;28;20215;-46
2022/01/28 02:26:04;;;;;;;7.70;4.90;;;4.40;94.80;;;;;;5119131;28;20813;-46
2022/01/28 02:28:34;;;;;;;6.07;5.30;;;4.40;94.80;;;;;;5119156;28;20422;-46
2022/01/28 02:31:02;;;;;;;6.00;4.57;;;4.30;94.90;;;;;;5119591;28;20398;-45
2022/01/28 02:33:28;;;;;;;7.03;4.70;;;4.30;94.90;;;;;;5119179;28;20525;-46
2022/01/28 02:35:54;;;;;;;5.83;4.80;;;4.20;94.90;;;;;;5119024;28;20566;-46
2022/01/28 02:38:22;;;;;;;5.80;4.57;;;4.20;94.90;;;;;;5101222;28;20176;-46
2022/01/28 02:40:54;;;;;;;5.80;5.20;;;4.20;95.00;;;;;;5119067;28;20180;-46
2022/01/28 02:44:05;;;;;;;5.60;5.00;;;4.10;95.00;;;;;;5118266;28;20477;-46
2022/01/28 02:46:32;;;;;;;7.13;5.33;;;4.10;95.00;;;;;;5119154;28;20418;-46
2022/01/28 02:49:05;;;;;;;7.63;4.83;;;4.10;95.10;;;;;;5118838;28;20444;-46
2022/01/28 02:51:31;;;;;;;5.90;4.83;;;4.10;95.10;;;;;;5118768;28;20495;-46
2022/01/28 02:53:59;;;;;;;5.90;4.60;;;4.00;95.10;;;;;;5119183;28;20471;-46
2022/01/28 02:56:38;;;;;;;6.10;5.47;;;4.00;95.20;;;;;;5119241;28;20176;-46
2022/01/28 02:59:05;;;;;;;5.03;4.43;;;4.00;95.20;;;;;;5119444;28;20421;-46
2022/01/28 03:01:31;;;;;;;5.23;4.40;;;4.00;95.30;;;;;;5119050;28;20811;-46
2022/01/28 03:03:59;;;;;;;6.80;5.23;;;3.90;95.20;;;;;;5118452;28;20804;-46
2022/01/28 03:06:25;;;;;;;5.70;4.50;;;3.90;95.30;;;;;;5119042;28;20175;-46
2022/01/28 03:09:12;;;;;;;6.33;4.50;;;3.90;95.30;;;;;;5118777;28;20422;-46
2022/01/28 03:16:52;;;;;;;6.60;5.20;;;3.80;95.30;;;;;;5118205;28;20409;-44
2022/01/28 03:19:18;;;;;;;6.03;4.80;;;3.80;95.30;;;;;;5119045;28;20724;-46
2022/01/28 03:21:53;;;;;;;6.63;5.13;;;3.80;95.30;;;;;;5117810;28;20448;-46
2022/01/28 03:24:20;;;;;;;5.67;5.07;;;3.80;95.30;;;;;;5118224;28;20469;-46
2022/01/28 03:26:51;;;;;;;7.47;5.17;;;3.80;95.30;;;;;;5118417;28;20414;-46
2022/01/28 03:29:17;;;;;;;6.10;4.43;;;3.70;95.20;;;;;;5118205;28;20472;-46
2022/01/28 03:31:43;;;;;;;8.23;6.10;;;3.70;95.20;;;;;;5100055;28;20406;-46
2022/01/28 03:34:08;;;;;;;6.10;5.23;;;3.70;95.20;;;;;;5118507;28;20197;-46
2022/01/28 03:36:34;;;;;;;6.30;5.30;;;3.70;95.20;;;;;;5117992;28;20172;-46
2022/01/28 03:39:00;;;;;;;6.73;5.73;;;3.70;95.20;;;;;;5118167;28;20187;-46
2022/01/28 03:41:26;;;;;;;7.40;4.97;;;3.70;95.20;;;;;;5118322;28;20851;-46
2022/01/28 03:43:58;;;;;;;5.43;4.53;;;3.70;95.20;;;;;;5118000;28;20239;-46
2022/01/28 03:46:25;;;;;;;6.80;5.17;;;3.60;95.10;;;;;;5118333;28;20176;-46
2022/01/28 03:48:52;;;;;;;5.23;4.60;;;3.60;95.20;;;;;;5117730;28;20884;-46
2022/01/28 03:51:18;;;;;;;5.70;4.83;;;3.60;95.20;;;;;;5116875;28;20399;-46
2022/01/28 03:53:44;;;;;;;5.43;4.50;;;3.60;95.20;;;;;;5118724;28;20406;-46
2022/01/28 03:56:09;;;;;;;6.50;5.80;;;3.60;95.30;;;;;;5121138;28;20710;-46
2022/01/28 03:58:35;;;;;;;7.10;5.77;;;3.60;95.30;;;;;;5121250;28;20571;-46
2022/01/28 04:01:03;;;;;;;7.07;5.50;;;3.70;95.40;;;;;;5121052;28;20573;-46
2022/01/28 04:11:34;;;;;;;8.80;5.63;;;3.70;95.40;;;;;;5121752;28;20479;-46
2022/01/28 04:14:10;;;;;;;9.20;6.00;;;3.80;95.40;;;;;;5122014;28;20429;-46
2022/01/28 04:19:21;;;;;;;7.83;7.03;;;3.80;95.50;;;;;;5121842;28;20436;-46
2022/01/28 04:21:46;;;;;;;6.43;5.83;;;3.80;95.50;;;;;;5122082;28;20462;-46
2022/01/28 04:24:13;;;;;;;7.03;6.20;;;3.80;95.50;;;;;;5122006;28;20253;-46
2022/01/28 04:26:39;;;;;;;8.47;5.73;;;3.80;95.50;;;;;;5121784;28;20188;-46
2022/01/28 04:29:06;;;;;;;8.93;6.30;;;3.80;95.50;;;;;;5121701;28;20402;-46
2022/01/28 04:31:32;;;;;;;8.70;6.17;;;3.80;95.50;;;;;;5121415;28;20824;-46
2022/01/28 04:34:00;;;;;;;7.93;7.00;;;3.80;95.50;;;;;;5120554;28;20710;-45
2022/01/28 04:36:29;;;;;;;11.00;6.37;;;3.80;95.40;;;;;;5102707;28;20450;-46
2022/01/28 04:39:04;;;;;;;6.93;6.10;;;3.80;95.40;;;;;;5120260;28;20434;-46
2022/01/28 04:44:25;;;;;;;9.60;6.23;;;3.80;95.30;;;;;;5082021;28;20473;-46
2022/01/28 04:47:07;;;;;;;9.70;6.47;;;3.80;95.30;;;;;;5120869;28;20417;-46
2022/01/28 04:49:52;;;;;;;7.17;6.10;;;3.70;95.30;;;;;;5121319;28;20427;-46
2022/01/28 04:57:59;;;;;;;8.03;5.83;;;3.70;95.70;;;;;;5119748;28;20453;-46
2022/01/28 05:26:51;;;;;;;8.73;7.30;;;3.60;95.50;;;;;;5082332;28;20471;-46
2022/01/28 05:29:17;;;;;;;8.60;6.30;;;3.60;95.50;;;;;;5117460;28;20508;-47
2022/01/28 05:31:42;;;;;;;9.17;6.73;;;3.50;95.40;;;;;;5117266;28;20497;-47
2022/01/28 05:34:08;;;;;;;7.30;5.87;;;3.50;95.40;;;;;;5118857;28;20182;-48
2022/01/28 05:36:34;;;;;;;7.70;6.97;;;3.50;95.40;;;;;;5118808;28;20214;-48
2022/01/28 05:39:00;;;;;;;7.00;5.97;;;3.50;95.40;;;;;;5118918;28;20196;-47
2022/01/28 05:41:25;;;;;;;7.63;6.50;;;3.50;95.50;;;;;;5118636;28;20438;-47
2022/01/28 05:43:51;;;;;;;8.33;6.73;;;3.50;95.50;;;;;;5119102;28;20219;-45
2022/01/28 05:46:19;;;;;;;8.00;6.13;;;3.40;95.50;;;;;;5118753;28;20179;-45
2022/01/28 05:48:45;;;;;;;8.10;6.20;;;3.40;95.50;;;;;;5119301;28;20574;-45
2022/01/28 05:51:12;;;;;;;8.27;6.23;;;3.40;95.50;;;;;;5118791;28;20441;-45
2022/01/28 05:53:38;;;;;;;9.90;5.83;;;3.40;95.50;;;;;;5118434;28;20217;-45
2022/01/28 05:56:03;;;;;;;7.20;5.60;;;3.40;95.50;;;;;;5118636;28;20413;-46
2022/01/28 05:58:29;;;;;;;10.57;6.20;;;3.30;95.50;;;;;;5117635;28;20252;-46
2022/01/28 06:00:55;;;;;;;12.43;6.80;;;3.30;95.50;;;;;;5117322;28;20410;-46
2022/01/28 06:03:21;;;;;;;9.20;6.83;;;3.30;95.50;;;;;;5117175;28;20465;-46
2022/01/28 06:05:48;;;;;;;8.23;6.20;;;3.30;95.50;;;;;;5118130;28;20175;-46
2022/01/28 06:08:13;;;;;;;9.40;7.80;;;3.30;95.50;;;;;;5117633;28;20275;-46
2022/01/28 06:10:39;;;;;;;9.73;7.47;;;3.30;95.50;;;;;;5099467;28;20560;-46
2022/01/28 06:13:05;;;;;;;10.50;7.30;;;3.30;95.40;;;;;;5104366;28;20181;-46
2022/01/28 06:15:31;;;;;;;11.77;8.73;;;3.30;95.40;;;;;;5097470;28;20165;-46
2022/01/28 06:17:57;;;;;;;13.47;9.77;;;3.20;95.30;;;;;;5096066;28;20459;-46
2022/01/28 06:20:23;;;;;;;12.37;9.00;;;3.20;95.20;;;;;;5095642;28;20477;-46
2022/01/28 06:22:49;;;;;;;12.97;9.47;;;3.20;95.20;;;;;;5094231;28;20216;-46
2022/01/28 06:25:15;;;;;;;12.07;9.40;;;3.20;95.20;;;;;;5095255;28;20175;-54
2022/01/28 06:27:42;;;;;;;12.97;9.63;;;3.20;95.10;;;;;;5094834;28;20456;-45
2022/01/28 06:30:09;;;;;;;11.80;8.70;;;3.10;95.10;;;;;;5096976;28;20422;-46
2022/01/28 06:32:34;;;;;;;10.57;7.73;;;3.10;95.10;;;;;;5096494;28;20483;-46
2022/01/28 06:35:07;;;;;;;10.40;7.03;;;3.10;95.10;;;;;;5097110;28;20415;-46
2022/01/28 06:37:33;;;;;;;9.57;7.20;;;3.10;95.20;;;;;;5097494;28;20523;-46
2022/01/28 06:39:59;;;;;;;10.10;6.87;;;3.10;95.20;;;;;;5095495;28;20417;-46
2022/01/28 06:42:25;;;;;;;8.20;6.23;;;3.00;95.20;;;;;;5094128;28;20426;-46
2022/01/28 06:44:51;;;;;;;8.57;6.70;;;3.00;95.20;;;;;;5094767;28;20208;-46
2022/01/28 06:47:16;;;;;;;7.90;6.20;;;3.00;95.20;;;;;;5095264;28;20445;-46
2022/01/28 06:49:42;;;;;;;11.53;8.10;;;3.00;95.30;;;;;;5095518;28;20585;-46
2022/01/28 06:52:08;;;;;;;11.10;7.00;;;3.00;95.30;;;;;;5095782;28;20218;-46
2022/01/28 06:54:33;;;;;;;7.33;6.53;;;3.00;95.30;;;;;;5095617;28;20246;-46
2022/01/28 06:56:59;;;;;;;9.20;7.67;;;3.00;95.40;;;;;;5078047;28;20187;-46
2022/01/28 06:59:26;;;;;;;10.27;7.47;;;3.00;95.80;;;;;;5095852;28;20180;-46
2022/01/28 07:01:53;;;;;;;8.37;7.37;;;3.00;95.60;;;;;;5107342;28;20599;-46
2022/01/28 07:04:19;;;;;;;9.97;6.83;;;3.00;95.70;;;;;;5089125;28;20493;-46
2022/01/28 07:06:46;;;;;;;13.37;7.20;;;3.10;95.80;;;;;;5096735;28;20403;-47
2022/01/28 07:09:11;;;;;;;9.87;7.67;;;3.10;95.90;;;;;;5105186;28;20430;-46
2022/01/28 07:11:37;;;;;;;7.93;6.60;;;3.10;96.00;;;;;;5114690;28;20465;-46
2022/01/28 07:14:03;;;;;;;9.13;7.10;;;3.20;96.10;;;;;;5112845;28;20202;-47
2022/01/28 07:16:30;;;;;;;8.90;7.53;;;3.20;96.20;;;;;;5115613;28;20678;-47
2022/01/28 07:18:56;;;;;;;9.00;6.57;;;3.30;96.30;;;;;;5114689;28;20418;-47
2022/01/28 07:21:21;;;;;;;9.20;7.80;;;3.30;96.30;;;;;;5115800;28;20463;-38
2022/01/28 07:23:47;;;;;;;12.40;7.83;;;3.40;96.40;;;;;;5109835;28;20569;-39
2022/01/28 07:26:13;;;;;;;9.60;7.33;;;3.50;96.40;;;;;;5094570;28;20177;-39
2022/01/28 07:28:40;;;;;;;8.37;7.50;;;3.50;96.30;;;;;;5095104;28;20299;-39
2022/01/28 07:31:08;;;;;;;10.60;7.40;;;3.60;96.30;;;;;;5095409;28;20437;-39
2022/01/28 07:33:34;;;;;;;9.10;7.93;;;3.70;96.20;;;;;;5093766;28;20498;-40
2022/01/28 07:36:00;;;;;;;10.43;8.43;;;3.80;96.10;;;;;;5093916;28;20517;-38
2022/01/28 07:38:26;;;;;;;11.53;7.87;;;3.90;96.00;;;;;;5092710;28;20168;-39
2022/01/28 07:40:51;;;;;;;11.00;8.20;;;4.00;96.00;;;;;;5108443;28;20436;-38
2022/01/28 07:43:17;;;;;;;8.10;7.10;;;4.20;95.90;;;;;;5094346;28;20623;-39
2022/01/28 07:45:43;;;;;;;9.30;7.13;;;4.20;95.70;;;;;;5094525;28;20181;-39
2022/01/28 07:48:09;;;;;;;9.97;8.23;;;4.30;95.40;;;;;;5094963;28;20187;-39
2022/01/28 07:50:35;;;;;;;8.83;6.77;;;4.30;95.20;;;;;;5095732;28;20843;-37
2022/01/28 07:53:01;;;;;;;9.13;6.53;;;4.40;95.20;;;;;;5095633;28;20180;-37
2022/01/28 07:55:26;;;;;;;9.90;7.23;;;4.50;95.00;;;;;;5095989;28;20586;-39
2022/01/28 07:57:52;;;;;;;11.00;8.40;;;4.50;94.80;;;;;;5095708;28;20184;-39
2022/01/28 08:00:17;;;;;;;8.90;6.93;;;4.60;94.80;;;;;;5095249;28;20192;-39
2022/01/28 08:02:43;;;;;;;11.77;7.53;;;4.70;94.80;;;;;;5094839;28;20611;-39
2022/01/28 08:05:10;;;;;;;9.53;7.33;;;5.00;94.80;;;;;;5095745;28;20181;-38
2022/01/28 08:07:36;;;;;;;9.77;6.90;;;5.20;94.40;;;;;;5095544;28;20167;-38
2022/01/28 08:10:02;;;;;;;10.10;7.23;;;5.30;93.90;;;;;;5094892;28;20466;-39
2022/01/28 08:12:28;;;;;;;7.70;6.20;;;5.40;93.60;;;;;;5095713;28;20239;-39
2022/01/28 08:14:53;;;;;;;8.43;6.20;;;5.50;93.40;;;;;;5096436;28;20407;-39
2022/01/28 08:17:19;;;;;;;6.60;5.90;;;5.60;93.30;;;;;;5096292;28;20180;-39
2022/01/28 08:19:44;;;;;;;9.00;5.67;;;5.70;93.00;;;;;;5095538;28;20180;-39
2022/01/28 08:22:10;;;;;;;7.00;6.30;;;5.90;92.80;;;;;;5096557;28;20184;-39
2022/01/28 08:24:36;;;;;;;5.93;4.63;;;5.90;92.60;;;;;;5095161;28;20277;-39
2022/01/28 08:27:02;;;;;;;13.70;7.40;;;6.00;92.40;;;;;;5094548;28;20169;-38
2022/01/28 08:29:27;;;;;;;8.90;5.83;;;6.10;92.20;;;;;;5078299;28;20180;-39
2022/01/28 08:31:53;;;;;;;6.67;4.00;;;6.20;91.90;;;;;;5076474;28;20430;-39
2022/01/28 08:34:18;;;;;;;7.03;2.60;;;6.60;97.00;;;;;;5092653;28;20191;-40
2022/01/28 08:36:44;;;;;;;5.37;3.10;;;7.60;99.90;;;;;;5093757;28;20192;-40
2022/01/28 08:39:11;;;;;;;5.00;3.63;;;8.50;99.90;;;;;;5092222;28;20175;-38
2022/01/28 08:41:39;;;;;;;7.33;3.03;;;9.10;99.90;;;;;;5096703;28;20177;-38
2022/01/28 08:44:05;;;;;;;8.80;3.67;;;9.90;99.90;;;;;;5097961;28;20469;-41
2022/01/28 08:46:31;;;;;;;3.40;3.10;;;10.50;98.20;;;;;;5096974;28;20483;-41
2022/01/28 08:48:57;;;;;;;4.50;3.10;;;11.10;96.00;;;;;;5096949;28;20417;-41
2022/01/28 08:51:23;;;;;;;4.93;3.70;;;11.70;95.10;;;;;;5095393;28;20418;-39
2022/01/28 08:53:48;;;;;;;5.93;3.87;;;12.20;93.20;;;;;;5096538;28;20432;-39
2022/01/28 08:56:14;;;;;;;5.17;4.20;;;12.60;91.60;;;;;;5097072;28;20294;-40
2022/01/28 08:58:40;;;;;;;5.80;4.60;;;12.70;86.30;;;;;;5078367;28;20561;-39
2022/01/28 09:01:06;;;;;;;6.60;5.37;;;12.30;81.30;;;;;;5078682;28;20188;-40
2022/01/28 09:03:33;;;;;;;8.47;5.83;;;11.90;76.30;;;;;;5096613;28;20725;-40
2022/01/28 09:05:59;;;;;;;7.20;6.03;;;11.50;73.90;;;;;;5097995;28;20433;-39
2022/01/28 09:08:25;;;;;;;7.40;5.20;;;11.00;73.20;;;;;;5095223;28;20415;-39
2022/01/28 09:10:59;;;;;;;5.50;5.00;;;10.70;73.80;;;;;;5096158;28;20466;-40
2022/01/28 09:13:27;;;;;;;8.77;4.70;;;10.50;73.50;;;;;;5097477;28;20410;-38
2022/01/28 09:15:55;;;;;;;7.30;5.27;;;10.30;72.80;;;;;;5097377;28;20433;-38
2022/01/28 09:18:22;;;;;;;6.70;5.20;;;10.10;72.80;;;;;;5097853;28;20544;-39
2022/01/28 09:20:48;;;;;;;7.90;5.23;;;9.80;74.10;;;;;;5080114;28;20437;-38
2022/01/28 09:23:14;;;;;;;6.17;4.73;;;9.60;74.10;;;;;;5094085;28;20529;-38
2022/01/28 09:25:41;;;;;;;6.07;5.47;;;9.40;74.40;;;;;;5094567;28;20415;-40
2022/01/28 09:28:06;;;;;;;4.93;4.43;;;9.20;74.60;;;;;;5094442;28;20639;-38
2022/01/28 09:30:32;;;;;;;6.53;5.20;;;9.10;74.90;;;;;;5093946;28;20885;-39
2022/01/28 09:32:58;;;;;;;5.23;3.93;;;9.00;74.90;;;;;;5095815;28;20188;-40
2022/01/28 09:35:25;;;;;;;7.77;5.63;;;9.00;75.30;;;;;;5095075;28;20758;-38
2022/01/28 09:37:52;;;;;;;6.07;4.33;;;9.10;75.60;;;;;;5076582;28;20444;-39
2022/01/28 09:40:18;;;;;;;6.07;5.00;;;9.20;76.30;;;;;;5094196;28;20410;-40
2022/01/28 09:42:46;;;;;;;8.50;4.67;;;9.20;75.30;;;;;;5094638;28;20463;-39
2022/01/28 09:45:20;;;;;;;7.47;4.77;;;9.30;75.30;;;;;;5095303;28;20900;-39
2022/01/28 09:47:46;;;;;;;7.30;4.37;;;9.30;75.20;;;;;;5094290;28;20472;-39
2022/01/28 09:50:13;;;;;;;7.30;5.00;;;9.20;75.00;;;;;;5093490;28;20409;-39
2022/01/28 09:52:39;;;;;;;11.57;5.37;;;9.20;74.50;;;;;;5093749;28;20458;-39
2022/01/28 09:55:05;;;;;;;8.23;5.30;;;9.10;74.20;;;;;;5096374;28;20461;-39
2022/01/28 09:57:32;;;;;;;6.10;4.93;;;9.10;74.40;;;;;;5096479;28;20392;-39
2022/01/28 09:59:58;;;;;;;8.63;4.27;;;9.10;74.70;;;;;;5096618;28;20506;-39
2022/01/28 10:02:48;;;;;;;8.40;5.00;;;9.20;74.60;;;;;;5098011;28;20463;-38
2022/01/28 10:05:38;;;;;;;6.00;4.17;;;9.30;74.40;;;;;;5097665;28;20528;-38
2022/01/28 10:08:16;;;;;;;6.63;4.67;;;9.50;74.00;;;;;;5091127;28;20442;-38
2022/01/28 10:10:50;;;;;;;6.23;4.30;;;9.60;73.50;;;;;;5097623;28;20888;-39
2022/01/28 10:13:28;;;;;;;5.43;3.80;;;9.80;73.00;;;;;;5095952;28;20425;-39
2022/01/28 10:16:14;;;;;;;6.77;4.90;;;9.90;72.10;;;;;;5095470;28;20411;-38
2022/01/28 10:18:57;;;;;;;5.80;4.57;;;10.10;70.10;;;;;;5085612;28;20441;-38
2022/01/28 10:21:26;;;;;;;6.73;4.63;;;10.30;69.60;;;;;;5096555;28;20410;-39
2022/01/28 10:24:07;;;;;;;9.63;4.13;;;10.60;69.00;;;;;;5095323;28;20634;-39
2022/01/28 10:26:38;;;;;;;5.80;3.80;;;10.80;67.40;;;;;;5117981;27;20432;-39
2022/01/28 10:29:11;;;;;;;4.33;3.37;;;10.90;66.00;;;;;;5082090;28;20856;-40
2022/01/28 10:31:44;;;;;;;9.80;3.20;;;11.00;65.00;;;;;;5116629;28;20691;-39
2022/01/28 10:34:12;;;;;;;4.17;2.93;;;11.00;63.80;;;;;;5115071;28;20770;-39
2022/01/28 10:36:38;;;;;;;6.47;3.10;;;11.10;63.70;;;;;;5099065;28;20458;-39
2022/01/28 10:39:04;;;;;;;5.13;2.97;;;11.60;62.80;;;;;;5081477;28;20464;-40
2022/01/28 10:41:29;;;;;;;7.33;3.80;;;11.90;62.00;;;;;;5116235;28;20179;-40
2022/01/28 10:43:57;;;;;;;7.50;3.57;;;12.20;60.80;;;;;;5116937;28;20204;-39
2022/01/28 10:46:34;;;;;;;8.67;4.47;;;12.70;59.70;;;;;;5114675;28;20597;-39
2022/01/28 10:49:02;;;;;;;7.87;5.10;;;13.00;58.90;;;;;;5113570;28;20528;-38
2022/01/28 10:51:48;;;;;;;6.27;3.70;;;13.10;57.50;;;;;;5113355;28;20422;-39
2022/01/28 10:54:19;;;;;;;2.60;2.13;;;13.20;59.30;;;;;;5113760;28;20440;-39
2022/01/28 10:57:01;;;;;;;1.73;1.50;;;13.50;76.70;;;;;;5117385;28;20506;-39
2022/01/28 10:59:38;;;;;;;5.63;2.57;;;14.00;79.40;;;;;;5117291;28;20842;-41
2022/01/28 11:02:05;;;;;;;6.30;2.40;;;14.50;78.50;;;;;;5115928;28;20909;-39
2022/01/28 11:04:33;;;;;;;6.40;2.93;;;14.90;74.80;;;;;;5116945;28;20464;-39
2022/01/28 11:07:00;;;;;;;5.10;3.30;;;14.90;67.10;;;;;;5114522;28;20461;-39
2022/01/28 11:09:29;;;;;;;6.77;4.03;;;14.70;60.50;;;;;;5114858;28;20421;-39
2022/01/28 11:11:54;;;;;;;6.40;3.80;;;14.20;55.70;;;;;;5133746;27;20782;-41
2022/01/28 11:14:22;;;;;;;7.67;4.40;;;13.70;55.00;;;;;;5122800;27;20483;-41
2022/01/28 11:16:48;;;;;;;5.60;3.30;;;13.30;54.50;;;;;;5116242;28;20235;-40
2022/01/28 11:19:17;;;;;;;6.87;3.27;;;13.10;54.80;;;;;;5115769;28;20434;-39
2022/01/28 11:21:56;;;;;;;7.73;3.60;;;13.50;55.50;;;;;;5098054;28;20429;-39
2022/01/28 11:24:34;;;;;;;7.60;4.10;;;14.60;54.80;;;;;;5117064;28;20491;-41
2022/01/28 11:27:26;;;;;;;4.40;2.33;;;15.60;52.50;;;;;;5117392;28;20422;-40
2022/01/28 11:30:15;;;;;;;3.73;2.53;;;15.80;49.90;;;;;;5103755;28;20424;-41
2022/01/28 11:33:01;;;;;;;6.67;3.30;;;15.70;48.70;;;;;;5086662;28;20450;-39
2022/01/28 11:35:41;;;;;;;7.33;4.23;;;15.70;48.00;;;;;;5115842;28;20552;-40
2022/01/28 11:38:41;;;;;;;4.97;3.23;;;15.60;47.40;;;;;;5115343;28;20516;-40
2022/01/28 11:41:11;;;;;;;4.87;3.47;;;15.30;46.90;;;;;;5059628;28;20437;-40
2022/01/28 11:43:47;;;;;;;4.27;2.37;;;15.10;46.60;;;;;;5115692;28;20456;-40
2022/01/28 11:46:22;;;;;;;3.77;2.30;;;14.90;46.30;;;;;;5113129;28;20429;-39
2022/01/28 11:48:58;;;;;;;4.90;2.40;;;15.00;46.30;;;;;;5113480;28;20411;-40
2022/01/28 11:51:32;;;;;;;4.17;2.10;;;15.70;46.40;;;;;;5115075;28;20433;-38
2022/01/28 11:54:01;;;;;;;3.63;2.40;;;16.20;45.80;;;;;;5115275;28;20412;-40
2022/01/28 11:56:28;;;;;;;3.40;2.50;;;16.40;44.50;;;;;;5098036;28;20488;-40
2022/01/28 11:59:01;;;;;;;4.17;2.63;;;16.50;44.00;;;;;;5114706;28;20519;-40
2022/01/28 12:01:49;;;;;;;4.10;2.70;;;16.60;43.80;;;;;;5095437;28;20731;-39
2022/01/28 12:04:24;;;;;;;4.17;2.23;;;16.20;43.80;;;;;;5080304;28;20465;-40
2022/01/28 12:06:56;;;;;;;6.93;3.97;;;16.00;44.10;;;;;;5095176;28;20429;-39
2022/01/28 12:09:26;;;;;;;5.73;4.00;;;16.20;43.30;;;;;;5093886;28;20417;-39
2022/01/28 12:11:52;;;;;;;6.83;3.07;;;15.90;43.50;;;;;;5113179;28;20500;-39
2022/01/28 12:14:19;;;;;;;4.23;2.93;;;15.90;44.20;;;;;;5115349;28;20414;-39
2022/01/28 12:16:48;;;;;;;5.13;2.53;;;16.10;44.10;;;;;;5098711;28;20726;-39
2022/01/28 12:19:19;;;;;;;5.67;2.60;;;16.30;43.80;;;;;;5099655;28;20519;-39
2022/01/28 12:22:04;;;;;;;3.43;2.10;;;17.40;43.90;;;;;;5099173;28;20437;-40
2022/01/28 12:24:32;;;;;;;6.47;2.70;;;18.80;43.30;;;;;;5115902;28;20556;-41
2022/01/28 12:27:08;;;;;;;5.00;2.20;;;20.20;42.10;;;;;;5117356;28;20467;-41
2022/01/28 12:29:57;;;;;;;3.90;1.93;;;21.40;40.70;;;;;;5116964;28;20404;-41
2022/01/28 12:32:25;;;;;;;5.70;2.50;;;22.00;38.20;;;;;;5115615;28;21010;-41
2022/01/28 12:34:52;;;;;;;10.33;2.70;;;21.90;36.70;;;;;;5114127;28;20402;-39
2022/01/28 12:37:22;;;;;;;8.77;3.23;;;21.60;35.70;;;;;;5096697;28;20852;-41
2022/01/28 12:39:59;;;;;;;4.13;2.60;;;20.90;35.50;;;;;;5095824;28;20429;-41
2022/01/28 12:42:27;;;;;;;5.67;2.30;;;20.30;35.50;;;;;;5096487;28;20461;-39
2022/01/28 12:44:58;;;;;;;3.07;2.00;;;19.70;35.50;;;;;;5095741;28;20775;-39
2022/01/28 12:47:32;;;;;;;3.27;2.00;;;19.40;36.00;;;;;;5115388;28;20916;-39
2022/01/28 12:50:03;;;;;;;5.03;2.27;;;18.70;35.90;;;;;;5116001;28;20540;-41
2022/01/28 12:52:31;;;;;;;4.07;1.70;;;18.00;36.10;;;;;;5117022;28;20524;-40
2022/01/28 12:54:57;;;;;;;2.90;2.20;;;17.50;36.70;;;;;;5117758;28;20429;-39
2022/01/28 12:57:23;;;;;;;4.67;2.60;;;17.10;37.20;;;;;;5117611;28;20429;-39
2022/01/28 12:59:49;;;;;;;3.20;2.30;;;16.60;37.80;;;;;;5119155;28;20530;-39
2022/01/28 13:02:19;;;;;;;4.10;2.40;;;16.50;38.40;;;;;;5118393;28;20299;-40
2022/01/28 13:10:19;;;;;;;3.73;3.30;;;15.90;39.30;;;;;;5119345;28;20483;-40
2022/01/28 13:12:49;;;;;;;5.50;2.53;;;15.80;39.60;;;;;;5083910;28;20507;-40
2022/01/28 13:15:16;;;;;;;5.37;2.90;;;15.70;40.00;;;;;;5101930;28;20478;-40
2022/01/28 13:17:55;;;;;;;4.63;3.13;;;15.90;40.30;;;;;;5118289;28;20425;-39
2022/01/28 13:20:22;;;;;;;5.80;3.30;;;15.60;40.30;;;;;;5111386;28;20410;-39
2022/01/28 13:22:50;;;;;;;4.80;3.30;;;15.10;40.40;;;;;;5097192;28;20768;-40
2022/01/28 13:25:24;;;;;;;3.87;3.00;;;14.60;40.80;;;;;;5095933;28;20828;-39
2022/01/28 13:27:55;;;;;;;20.37;4.27;;;14.30;41.40;;;;;;5106700;28;20426;-38
2022/01/28 13:30:21;;;;;;;5.03;2.90;;;14.00;41.90;;;;;;5116937;28;20440;-39
2022/01/28 13:32:49;;;;;;;5.20;3.20;;;13.90;42.70;;;;;;5117601;28;20459;-39
2022/01/28 13:35:21;;;;;;;8.90;3.90;;;14.20;42.60;;;;;;5099667;28;20440;-40
2022/01/28 13:38:00;;;;;;;4.80;3.67;;;14.40;42.50;;;;;;5119688;28;20425;-40
2022/01/28 13:40:29;;;;;;;6.23;4.33;;;14.50;42.30;;;;;;5118999;28;20409;-39
2022/01/28 13:43:16;;;;;;;7.10;5.10;;;14.50;42.10;;;;;;5119284;28;20560;-39
2022/01/28 13:46:05;;;;;;;5.37;3.70;;;14.10;42.10;;;;;;5118459;28;20467;-38
2022/01/28 13:48:37;;;;;;;6.07;4.43;;;13.70;42.70;;;;;;5118932;28;20496;-40
2022/01/28 13:51:04;;;;;;;5.73;4.73;;;13.40;43.20;;;;;;5117550;28;20414;-40
2022/01/28 13:56:04;;;;;;;6.23;5.53;;;12.80;44.10;;;;;;5117195;28;20433;-40
2022/01/28 13:58:41;;;;;;;8.40;5.40;;;12.50;44.40;;;;;;5118255;28;20178;-39
2022/01/28 14:01:08;;;;;;;5.33;4.40;;;12.30;44.80;;;;;;5117954;28;20436;-39
2022/01/28 14:03:54;;;;;;;5.50;4.40;;;12.00;45.50;;;;;;5116043;28;20750;-39
2022/01/28 14:06:26;;;;;;;6.63;4.93;;;11.80;45.30;;;;;;5117207;28;20845;-39
2022/01/28 14:08:55;;;;;;;6.47;5.37;;;11.50;45.50;;;;;;5116970;28;20414;-39
2022/01/28 14:11:38;;;;;;;7.40;5.23;;;11.30;46.00;;;;;;5117106;28;20570;-40
2022/01/28 14:17:02;;;;;;;7.67;5.03;;;11.00;46.80;;;;;;5116758;28;20444;-39
2022/01/28 14:19:33;;;;;;;5.80;4.90;;;11.00;47.10;;;;;;5099063;28;20445;-40
2022/01/28 14:21:59;;;;;;;6.37;5.10;;;11.10;47.30;;;;;;5099940;28;20693;-41
2022/01/28 14:24:30;;;;;;;6.73;4.53;;;11.30;47.20;;;;;;5117491;28;20545;-39
2022/01/28 14:32:17;;;;;;;7.50;5.10;;;11.30;46.40;;;;;;5117402;28;20743;-39
2022/01/28 14:34:44;;;;;;;6.80;4.63;;;11.30;46.40;;;;;;5099622;28;20480;-39
2022/01/28 14:37:10;;;;;;;6.03;4.43;;;11.40;46.30;;;;;;5117379;28;20417;-39
2022/01/28 14:39:38;;;;;;;7.70;4.97;;;11.40;46.10;;;;;;5100295;28;20719;-40
2022/01/28 14:42:05;;;;;;;6.20;4.40;;;11.40;46.00;;;;;;5100097;28;20430;-39
2022/01/28 14:44:32;;;;;;;6.63;4.53;;;11.30;46.00;;;;;;5116488;28;20579;-39
2022/01/28 14:46:59;;;;;;;7.97;4.70;;;11.20;46.00;;;;;;5116887;28;20422;-42